Weather   Thornlie   Western Australia


Observations from 11/12/2019 2:00 am back to 8/12/2019 02:00 am half hourly.

 

Observations for the previous 72 hours
 
Date/Time
WST
 
Temp
°C
App
Temp
°C
Heat
Index
°C
Wind
Chill
°C
Dew
Point
°C
Rel
Hum
%
 
Dir
 
 
Spd
km/h
Wind
Gust
km/h
 
Spd
kts
 
Gust
kts
Press
MSL
hPa
Rain
Since 9am
mm
 
Solar
W/m2
 
UV
Index
11/02:00am 23.1 23.1 23.1 7.2 36 6.1 13.9 1015.31 0.0 0 0.0
11/01:30am 23.5 23.5 23.5 7.1 35 6.1 14.8 1015.34 0.0 0 0.0
11/01:00am 23.9 23.9 21.5 7.5 35 7.0 16.5 1015.24 0.0 0 0.0
11/12:30am 24.6 24.6 24.3 7.7 34 6.1 13.9 1015.07 0.0 0 0.0
11/12:00am 25.2 25.2 23.9 8.2 34 6.1 15.7 1015.17 0.0 0 0.0
10/11:30pm 25.6 25.6 24.6 8.6 34 7.0 20.0 1014.94 0.0 0 0.0
10/11:00pm 26.6 26.6 26.4 8.6 32 7.8 21.7 1014.77 0.0 0 0.0
10/10:30pm 27.6 26.7 27.4 7.5 28 6.1 13.9 1014.73 0.0 0 0.0
10/10:00pm 26.7 26.1 26.7 6.1 27 1.7 5.2 1014.60 0.0 0 0.0
10/09:30pm 26.7 26.2 26.7 7.2 29 1.7 3.5 1014.46 0.0 0 0.0
10/09:00pm 26.5 26.5 26.5 8.5 32 0.9 3.5 1014.36 0.0 0 0.0
10/08:30pm 27.3 26.9 27.3 10.9 36 1.7 4.3 1014.26 0.0 0 0.0
10/08:00pm 28.5 27.7 28.5 11.1 34 1.7 5.2 1014.09 0.0 0 0.0
10/07:30pm 29.4 28.3 29.4 11.0 32 1.7 6.1 1014.02 0.0 0 0.0
10/07:00pm 30.5 29.3 30.5 11.5 31 0.9 5.2 1013.99 0.0 11 0.0
10/06:30pm 31.7 30.5 31.7 12.0 30 3.5 8.7 1013.99 0.0 21 0.0
10/06:00pm 33.8 32.9 33.8 13.3 29 3.5 10.4 1013.72 0.0 142 0.0
10/05:30pm 35.4 34.6 35.4 13.6 27 1.7 7.0 1013.52 0.0 281 0.7
10/05:00pm 36.1 34.8 36.1 11.7 23 3.5 7.8 1013.52 0.0 341 1.2
10/04:30pm 36.8 35.5 36.8 11.6 22 2.6 8.7 1013.58 0.0 418 1.8
10/04:00pm 36.4 35.0 36.4 11.3 22 3.5 11.3 1013.75 0.0 633 2.7
10/03:30pm 37.2 35.1 37.2 8.0 17 1.7 5.2 1013.96 0.0 643 3.6
10/03:00pm 37.0 34.9 37.0 7.9 17 0.9 3.5 1014.26 0.0 793 4.8
10/02:30pm 36.9 34.9 36.9 8.7 18 1.7 5.2 1014.63 0.0 875 5.9
10/02:00pm 36.3 34.4 36.3 9.0 19 3.5 9.6 1014.84 0.0 946 7.0
10/01:30pm 35.4 33.4 35.4 8.3 19 1.7 4.3 1015.04 0.0 997 7.8
10/01:00pm 35.3 33.1 35.3 7.4 18 2.6 7.8 1015.55 0.0 1041 8.6
10/12:30pm 35.2 33.3 35.2 8.8 20 3.5 8.7 1016.06 0.0 1076 9.0
10/12:00pm 35.1 32.9 35.1 7.2 18 3.5 11.3 1016.53 0.0 1078 9.2
10/11:30am 33.7 31.8 33.7 9.0 22 2.6 7.8 1016.83 0.0 1067 9.0
10/11:00am 32.5 30.7 32.5 9.3 24 4.3 11.3 1017.31 0.0 1044 8.4
10/10:30am 31.3 30.0 31.3 11.1 29 2.6 6.1 1017.85 0.0 995 7.4
10/10:00am 29.2 28.2 29.2 11.2 33 1.7 6.1 1018.22 0.0 930 6.3
10/09:30am 27.9 27.3 27.9 11.0 35 1.7 6.1 1018.49 0.0 835 4.7
10/09:00am 26.7 26.4 26.7 9.9 35 1.7 3.5 1018.87 0.0 679 3.5
10/08:30am 25.3 25.3 25.3 10.8 40 0.9 5.2 1019.20 0.0 652 2.7
10/08:00am 23.5 23.5 23.5 10.2 43 0.9 3.5 1019.27 0.0 568 1.9
10/07:30am 22.8 22.8 22.8 10.6 46 1.7 7.8 1019.34 0.0 439 1.3
10/07:00am 21.2 21.2 21.2 10.0 49 1.7 8.7 1019.24 0.0 380 0.9
10/06:30am 19.1 19.1 19.1 9.3 53 1.7 7.8 1019.04 0.0 248 0.5
10/06:00am 17.6 17.6 17.6 9.4 59 0.0 1.7 1018.80 0.0 49 0.0
10/05:30am 17.7 17.7 17.7 9.0 57 0.0 2.6 1018.56 0.0 26 0.0
10/05:00am 18.6 18.6 18.6 9.1 54 0.9 4.3 1018.26 0.0 0 0.0
10/04:30am 19.1 19.1 19.1 9.0 52 2.6 8.7 1018.05 0.0 0 0.0
10/04:00am 19.3 19.3 19.3 9.2 52 1.7 7.8 1017.78 0.0 0 0.0
10/03:30am 19.6 19.6 19.6 9.1 51 1.7 7.0 1017.78 0.0 0 0.0
10/03:00am 19.7 19.7 19.7 8.6 49 3.5 8.7 1017.82 0.0 0 0.0
10/02:30am 19.3 19.3 19.3 9.2 52 1.7 6.1 1017.75 0.0 0 0.0
 
Date/Time
WST
 
Temp
°C
App
Temp
°C
Heat
Index
°C
Wind
Chill
°C
Dew
Point
°C
Rel
Hum
%
 
Dir
 
 
Spd
km/h
Wind
Gust
km/h
 
Spd
kts
 
Gust
kts
Press
MSL
hPa
Rain
Since 9am
mm
 
Solar
W/m2
 
UV
Index
10/02:00am 16.8 16.8 16.8 10.7 67 1.7 8.7 1017.78 0.0 0 0.0
10/01:30am 15.9 15.9 15.9 12.9 82 0.0 1.7 1017.85 0.0 0 0.0
10/01:00am 16.3 16.3 16.3 13.3 82 0.0 1.7 1018.02 0.0 0 0.0
10/12:30am 16.8 16.8 16.8 13.7 82 0.0 1.7 1018.29 0.0 0 0.0
10/12:00am 17.2 17.2 17.2 13.9 81 0.9 1.7 1018.63 0.0 0 0.0
9/11:30pm 17.7 17.7 17.7 14.2 80 0.0 2.6 1019.07 0.0 0 0.0
9/11:00pm 18.3 18.3 18.3 14.4 78 0.9 2.6 1019.54 0.0 0 0.0
9/10:30pm 18.8 18.8 18.8 14.5 76 0.9 2.6 1019.78 0.0 0 0.0
9/10:00pm 19.3 19.3 19.3 14.5 74 1.7 3.5 1019.98 0.0 0 0.0
9/09:30pm 19.8 19.8 19.8 14.6 72 1.7 5.2 1020.19 0.0 0 0.0
9/09:00pm 20.2 20.2 20.2 14.6 70 1.7 7.0 1020.15 0.0 0 0.0
9/08:30pm 20.6 20.6 20.6 14.7 69 1.7 4.3 1019.85 0.0 0 0.0
9/08:00pm 21.3 21.3 21.3 14.4 65 3.5 7.8 1019.68 0.0 0 0.0
9/07:30pm 22.0 22.0 22.0 14.1 61 2.6 7.0 1019.51 0.0 0 0.0
9/07:00pm 22.9 22.9 22.9 13.1 54 3.5 8.7 1019.24 0.0 12 0.0
9/06:30pm 23.9 23.9 23.9 12.8 50 3.5 8.7 1018.83 0.0 42 0.0
9/06:00pm 24.9 24.9 24.9 12.8 47 4.3 9.6 1018.56 0.0 123 0.0
9/05:30pm 26.7 26.9 26.7 13.8 45 4.3 11.3 1018.26 0.0 279 0.7
9/05:00pm 27.9 27.7 27.9 13.8 42 3.5 9.6 1017.95 0.0 388 1.2
9/04:30pm 28.3 28.0 28.3 13.8 41 3.5 8.7 1018.05 0.0 497 1.9
9/04:00pm 28.2 28.0 28.2 14.1 42 4.3 10.4 1017.99 0.0 599 2.8
9/03:30pm 28.9 28.8 28.9 15.1 43 4.3 10.4 1018.05 0.0 698 3.8
9/03:00pm 28.5 28.3 28.5 14.3 42 5.2 12.2 1018.29 0.0 789 4.9
9/02:30pm 30.1 29.5 30.1 13.8 37 4.3 11.3 1018.29 0.0 860 5.9
9/02:00pm 31.3 29.8 31.3 10.1 27 2.6 7.8 1018.53 0.0 942 7.1
9/01:30pm 31.3 30.0 31.3 11.1 29 2.6 6.1 1018.97 0.0 1004 8.1
9/01:00pm 30.0 29.0 30.0 12.0 33 2.6 8.7 1019.31 0.0 1046 8.8
9/12:30pm 29.8 28.7 29.8 11.4 32 2.6 7.8 1019.81 0.0 1083 9.3
9/12:00pm 29.0 28.1 29.0 11.1 33 2.6 7.8 1020.05 0.0 1081 9.3
9/11:30am 28.0 27.4 28.0 11.1 35 3.5 8.7 1020.59 0.0 1063 9.1
9/11:00am 27.6 27.3 27.6 12.7 40 2.6 9.6 1020.90 0.0 1039 8.5
9/10:30am 26.4 26.4 26.4 12.1 41 1.7 5.2 1021.27 0.0 1000 7.7
9/10:00am 25.7 25.7 25.7 12.6 44 2.6 7.8 1021.61 0.0 942 6.7
9/09:30am 24.8 24.8 24.8 12.1 45 2.6 7.0 1021.91 0.0 872 5.6
9/09:00am 23.4 23.4 23.4 11.8 48 1.7 7.0 1021.81 0.0 793 4.4
9/08:30am 22.7 22.7 22.7 11.4 49 2.6 8.7 1021.78 0.0 705 3.3
9/08:00am 21.2 21.2 21.2 11.3 53 2.6 7.0 1021.58 0.0 605 2.3
9/07:30am 19.9 19.9 19.9 10.9 56 3.5 7.8 1021.64 0.0 492 1.5
9/07:00am 19.2 19.2 19.2 10.4 57 3.5 7.8 1021.30 0.0 381 0.9
9/06:30am 18.0 18.0 18.0 10.4 61 0.9 3.5 1021.10 0.0 257 0.5
9/06:00am 16.7 16.7 16.7 9.9 64 2.6 7.8 1020.76 0.0 111 0.0
9/05:30am 16.3 16.3 16.3 9.7 65 1.7 7.0 1020.29 0.0 19 0.0
9/05:00am 16.5 16.5 16.5 9.7 64 1.7 7.0 1020.05 0.0 0 0.0
9/04:30am 16.9 16.9 16.9 9.8 63 4.3 11.3 1019.81 0.0 0 0.0
9/04:00am 16.6 16.6 16.6 9.9 65 0.9 5.2 1019.51 0.0 0 0.0
9/03:30am 15.9 15.9 15.9 10.3 69 0.9 1.7 1019.20 0.0 0 0.0
9/03:00am 15.3 15.3 15.3 10.3 72 0.9 7.0 1019.04 0.0 0 0.0
9/02:30am 13.9 13.9 13.9 10.5 80 0.9 1.7 1019.10 0.0 0 0.0
 
Date/Time
WST
 
Temp
°C
App
Temp
°C
Heat
Index
°C
Wind
Chill
°C
Dew
Point
°C
Rel
Hum
%
 
Dir
 
 
Spd
km/h
Wind
Gust
km/h
 
Spd
kts
 
Gust
kts
Press
MSL
hPa
Rain
Since 9am
mm
 
Solar
W/m2
 
UV
Index
9/02:00am 14.2 14.2 14.2 10.6 79 1.7 4.3 1019.34 0.0 0 0.0
9/01:30am 14.7 14.7 14.7 11.3 80 1.7 3.5 1019.34 0.0 0 0.0
9/01:00am 15.2 15.2 15.2 12.2 82 1.7 5.2 1019.34 0.0 0 0.0
9/12:30am 15.8 15.8 15.8 12.6 81 0.9 3.5 1019.48 0.0 0 0.0
9/12:00am 16.2 16.2 16.2 12.9 81 0.9 3.5 1019.71 0.0 0 0.0
8/11:30pm 16.3 16.3 16.3 13.1 81 0.0 0.9 1019.88 0.0 0 0.0
8/11:00pm 16.8 16.8 16.8 13.0 78 0.0 0.9 1019.81 0.0 0 0.0
8/10:30pm 17.3 17.3 17.3 13.2 77 0.0 0.9 1020.09 0.0 0 0.0
8/10:00pm 17.7 17.7 17.7 13.2 75 0.9 1.7 1020.36 0.0 0 0.0
8/09:30pm 18.2 18.2 18.2 13.5 74 0.9 3.5 1020.39 0.0 0 0.0
8/09:00pm 18.6 18.6 18.6 13.7 73 1.7 4.3 1020.15 0.0 0 0.0
8/08:30pm 18.9 18.9 18.9 13.8 72 2.6 6.1 1019.78 0.0 0 0.0
8/08:00pm 19.3 19.3 19.3 13.7 70 3.5 7.0 1019.65 0.0 0 0.0
8/07:30pm 19.8 19.8 19.8 13.5 67 2.6 9.6 1019.54 0.0 0 0.0
8/07:00pm 20.8 20.8 20.8 13.2 62 3.5 7.8 1019.14 0.0 12 0.0
8/06:30pm 21.9 21.9 21.9 13.0 57 3.5 9.6 1018.76 0.0 33 0.0
8/06:00pm 23.3 23.3 23.3 13.2 53 3.5 10.4 1018.39 0.0 158 0.0
8/05:30pm 23.7 23.7 23.7 12.9 51 3.5 9.6 1018.26 0.0 287 0.7
8/05:00pm 24.1 24.1 24.1 13.0 50 3.5 13.0 1018.09 0.0 397 1.2
8/04:30pm 24.3 24.3 24.3 12.2 47 4.3 11.3 1018.19 0.0 506 1.9
8/04:00pm 24.3 24.3 24.3 11.6 45 5.2 10.4 1018.36 0.0 606 2.7
8/03:30pm 24.4 24.4 24.4 12.1 46 4.3 9.6 1018.39 0.0 708 3.7
8/03:00pm 24.4 24.4 24.4 12.0 46 5.2 13.9 1018.32 0.0 798 4.8
8/02:30pm 23.9 23.9 23.9 11.9 47 6.1 13.9 1018.29 0.0 872 5.8
8/02:00pm 24.7 24.7 24.7 11.6 44 5.2 12.2 1018.09 0.0 951 6.8
8/01:30pm 25.2 25.2 25.2 11.7 43 5.2 13.0 1017.78 0.0 1000 7.7
8/01:00pm 25.2 25.2 25.2 12.4 45 3.5 7.8 1017.68 0.0 1039 8.3
8/12:30pm 25.4 25.4 25.4 11.9 43 2.6 12.2 1017.85 0.0 1076 8.7
8/12:00pm 25.1 25.1 25.1 10.1 39 2.6 8.7 1018.12 0.0 1083 8.8
8/11:30am 24.4 24.4 24.4 10.0 40 2.6 7.8 1018.53 0.0 1071 8.6
8/11:00am 23.8 23.8 23.8 10.8 44 1.7 5.2 1018.73 0.0 1044 8.1
8/10:30am 23.6 23.6 23.6 10.6 44 2.6 7.8 1018.87 0.0 519 3.8
8/10:00am 22.2 22.2 22.2 10.7 48 2.6 7.8 1018.97 0.0 981 6.5
8/09:30am 21.9 21.9 21.9 11.3 51 3.5 8.7 1018.93 0.0 1053 3.1
8/09:00am 20.9 20.9 20.9 11.3 54 3.5 13.0 1018.70 0.4 265 2.8
8/08:30am 21.1 21.1 21.1 12.0 56 2.6 10.4 1018.70 0.4 717 3.2
8/08:00am 20.2 20.2 19.8 12.7 62 3.5 10.4 1018.32 0.4 603 2.3
8/07:30am 18.4 18.4 18.4 13.1 71 1.7 6.1 1018.22 0.4 330 1.2
8/07:00am 17.5 17.5 17.5 13.0 75 1.7 7.0 1017.92 0.4 503 0.9
8/06:30am 16.9 16.9 16.9 14.2 84 0.9 4.3 1017.51 0.4 135 0.0
8/06:00am 15.6 15.6 15.6 14.1 91 0.9 2.6 1016.87 0.4 109 0.0
8/05:30am 14.7 14.7 14.7 13.4 92 0.9 2.6 1016.22 0.4 21 0.0
8/05:00am 14.8 14.8 14.8 13.2 90 0.0 0.9 1015.78 0.4 0 0.0
8/04:30am 15.2 15.2 15.2 13.4 89 0.0 0.9 1015.31 0.4 0 0.0
8/04:00am 15.7 15.7 15.7 13.9 89 1.7 3.5 1015.11 0.4 0 0.0
8/03:30am 15.7 15.7 15.7 14.0 90 0.9 2.6 1014.90 0.4 0 0.0
8/03:00am 15.3 15.3 15.3 13.7 90 0.9 2.6 1014.77 0.4 0 0.0
8/02:30am 15.6 15.6 15.6 13.6 88 0.0 1.7 1014.63 0.4 0 0.0
8/02:00am 15.9 15.9 15.9 13.7 87 0.0 1.7 1014.67 0.4 0 0.0
 
Date/Time
WST
 
Temp
°C
App
Temp
°C
Heat
Index
°C
Wind
Chill
°C
Dew
Point
°C
Rel
Hum
%
 
Dir
 
 
Spd
km/h
Wind
Gust
km/h
 
Spd
kts
 
Gust
kts
Press
MSL
hPa
Rain
Since 9am
mm
 
Solar
W/m2
 
UV
Index


The information provided herein is for informational purposes only and is not guaranteed to be accurate in any way. Do not make any life threatening decisions either directly or indirectly based on the information herein, no responsibility is accepted for any injuries, accidents or other incidents whether fatal or non-fatal, as a direct or indirect result of actions taken based upon the information herein.
Please refer to the Australian Government Bureau of Meteorology for the official weather and forecast.


Copyright © 2019

 



page updated 11/12/2019 2:00:02 AM
cumulus software support forum
powered by  cumulus v1.9.4 (1099)
maintained by  IT ability